Rego, Indiana
Current Conditions -  °F | °C
As of 2:35 PM on Saturday 20 Dec 2014 (Local Time) from KHNB Reporting Station
Broken Clouds Broken Clouds  
Wind Chill: 32°   Ceiling: 6500
Heat Index: 36°   Visibility: 8mi
Dew Point: 25°   Wind: 5mph
Humidity: 65%   Direction: 300°WNW
Pressure: 30.27"   Gusts: NA
Location:  38.4642°N, 86.3228°W
Report Text: KHNB 201935Z AUTO 30004KT 8SM SCT021 BKN065 02/M04 A3027 RMK AO1
Loading
Personal Weather Stations






























Interactive Weather Map New forecast layout! Learn more

10-Day Weather Forecast

Advertisements
Track Severe Weather on mobile